Miami, Florida
Traffic Map
Current Weather Conditions
Miami, Florida
Broken Clouds
Broken Clouds
81°
Feels Like: 86°
Wind Chill: 81° Ceiling: 25000
Heat Index: 86° Visibility: 10mi
Dew Point: 74° Wind: 0mph
Humidity: 79% Direction: ° ()
Pressure: 30.06in Gusts: 0mph
Raw Report DataKMIA 241253Z 00000KT 10SM FEW025 SCT160 BKN250 27/23 A3006 RMK AO2 SLP178 T02720233
Traffic Incident Summary
Active as of:
Severity:
Category:
InformationThere was an issue retrieving the traffic information for this location. Please try a different location or try again shortly.
Advertisements
Track Severe Weather on mobile